Texas City — WDD4983 — position and weather

sailwx.info

Track history (hours):
 
Tides and Currents Weather Stations Pressure Air Temp Water Temp Dewpoint Dewpoint Depression Visibility Wind Speed Wind Dir Waves Ship Positions

Texas City

Owner: Marathon Petroleum Company LP, Findlay, OH. More information available from US FCC via Universal Licensing System and Coast Guard Vessel Documentation Center.

Last reported at 2016-Jun-23 23:28 UTC. Time now 2016-Jun-25 23:21 UTC.
Position N 30°00' W 093°46'.

Length 28 m; draft 3 m.

Type: Tug. MMSI: 367135470.

Date/timePositionNaut miles runAvg speedWind from/ knotsBaromVisibWave heightAir tempDewpointWater temp
2016-Jun-23 23:28N 30°00' W 093°46'4 4.9
2016-Jun-23 22:34N 30°03' W 093°43'5 5.0
2016-Jun-23 21:33N 30°04' W 093°37'4 3.7
2016-Jun-23 20:33N 30°04' W 093°33'5 4.6
2016-Jun-23 19:33N 30°04' W 093°27'5 4.7
2016-Jun-23 18:33N 30°04' W 093°22'4 3.7
2016-Jun-23 17:33N 30°06' W 093°19'1 1.0
2016-Jun-23 16:34N 30°06' W 093°18'3 3.1
2016-Jun-23 15:33N 30°03' W 093°16'4 4.3
2016-Jun-23 14:33N 29°60' W 093°13'5 4.9
2016-Jun-23 13:33N 29°56' W 093°09'5 4.8
2016-Jun-23 12:33N 29°56' W 093°04'5 5.1
2016-Jun-23 11:33N 29°56' W 092°58'5 4.8
2016-Jun-23 10:32N 29°57' W 092°52'23 3.8
2016-Jun-23 04:29N 29°53' W 092°26'4 4.3
2016-Jun-23 03:34N 29°51' W 092°22'4 4.0
2016-Jun-23 02:33N 29°50' W 092°18'5 4.6
2016-Jun-23 01:33N 29°47' W 092°13'4 3.6
2016-Jun-23 00:33N 29°47' W 092°09'5 5.3
2016-Jun-22 23:34N 29°49' W 092°03'3 2.8
2016-Jun-22 22:33N 29°50' W 092°00'9 3.8
2016-Jun-22 20:08N 29°49' W 091°49'46 4.2
2016-Jun-22 09:12N 29°36' W 090°59'3 4.4
2016-Jun-22 08:28N 29°34' W 090°56'5 4.5
2016-Jun-22 07:28N 29°32' W 090°51'4 3.9
2016-Jun-22 06:34N 29°32' W 090°47'4 3.7
2016-Jun-22 05:33N 29°34' W 090°44'3 3.3
2016-Jun-22 04:33N 29°37' W 090°41'5 4.6
2016-Jun-22 03:33N 29°35' W 090°37'5 4.6
2016-Jun-22 02:33N 29°34' W 090°31'36 2.6
2016-Jun-21 12:17N 29°55' W 089°58'0 0.0
2016-Jun-21 11:10N 29°55' W 089°58'  
2016-Jun-18 07:31N 30°13' W 091°02'0 0.0
2016-Jun-18 06:13N 30°13' W 091°02'25 0.5
2016-Jun-16 04:33N 30°03' W 090°36'  
Track history (hours):
 
Tides and Currents Weather Stations Pressure Air Temp Water Temp Dewpoint Dewpoint Depression Visibility Wind Speed Wind Dir Waves Ship Positions

Texas City

Owner: Marathon Petroleum Company LP, Findlay, OH. More information available from US FCC via Universal Licensing System and Coast Guard Vessel Documentation Center.

Last reported at 2016-Jun-23 23:28 UTC. Time now 2016-Jun-25 23:21 UTC.
Position N 30°00' W 093°46'.

Length 28 m; draft 3 m.

Type: Tug. MMSI: 367135470.

Date/timePositionNaut miles runAvg speedWind from/ knotsBaromVisibWave heightAir tempDewpointWater temp
2016-Jun-23 23:28N 30°00' W 093°46'4 4.9
2016-Jun-23 22:34N 30°03' W 093°43'5 5.0
2016-Jun-23 21:33N 30°04' W 093°37'4 3.7
2016-Jun-23 20:33N 30°04' W 093°33'5 4.6
2016-Jun-23 19:33N 30°04' W 093°27'5 4.7
2016-Jun-23 18:33N 30°04' W 093°22'4 3.7
2016-Jun-23 17:33N 30°06' W 093°19'1 1.0
2016-Jun-23 16:34N 30°06' W 093°18'3 3.1
2016-Jun-23 15:33N 30°03' W 093°16'4 4.3
2016-Jun-23 14:33N 29°60' W 093°13'5 4.9
2016-Jun-23 13:33N 29°56' W 093°09'5 4.8
2016-Jun-23 12:33N 29°56' W 093°04'5 5.1
2016-Jun-23 11:33N 29°56' W 092°58'5 4.8
2016-Jun-23 10:32N 29°57' W 092°52'23 3.8
2016-Jun-23 04:29N 29°53' W 092°26'4 4.3
2016-Jun-23 03:34N 29°51' W 092°22'4 4.0
2016-Jun-23 02:33N 29°50' W 092°18'5 4.6
2016-Jun-23 01:33N 29°47' W 092°13'4 3.6
2016-Jun-23 00:33N 29°47' W 092°09'5 5.3
2016-Jun-22 23:34N 29°49' W 092°03'3 2.8
2016-Jun-22 22:33N 29°50' W 092°00'9 3.8
2016-Jun-22 20:08N 29°49' W 091°49'46 4.2
2016-Jun-22 09:12N 29°36' W 090°59'3 4.4
2016-Jun-22 08:28N 29°34' W 090°56'5 4.5
2016-Jun-22 07:28N 29°32' W 090°51'4 3.9
2016-Jun-22 06:34N 29°32' W 090°47'4 3.7
2016-Jun-22 05:33N 29°34' W 090°44'3 3.3
2016-Jun-22 04:33N 29°37' W 090°41'5 4.6
2016-Jun-22 03:33N 29°35' W 090°37'5 4.6
2016-Jun-22 02:33N 29°34' W 090°31'36 2.6
2016-Jun-21 12:17N 29°55' W 089°58'0 0.0
2016-Jun-21 11:10N 29°55' W 089°58'  
2016-Jun-18 07:31N 30°13' W 091°02'0 0.0
2016-Jun-18 06:13N 30°13' W 091°02'25 0.5
2016-Jun-16 04:33N 30°03' W 090°36'  

Dump ship's entire track history